Aérodrome :
LOGIN :

S'inscrire | Disclaimer

   EN    FR    IT 

 










Légende :    VFR   VFR Marginal   IFR   IFR Intensif   IFR Très Intensif
Visi : 
Plafond : 
>= 8 km
>= 3000ft
5 à 8 km
1000 à 3000 ft
1500m à 5 km
500 à 1000 ft
800 à 1500m
200 à 500 ft
< 800m
< 200 ft
Symboles :   Orages  Brouillard  Fortes neiges  Fortes précipitations  Vent > 20 kt
SIGMETs :   Divers  Orages  Givrage  Turbulence  Onde Orograph.  Cendres Volcan.






- Altitude de l'aérodrome : 348 ft
- Code IATA : LDV


LFRJ - Landivisiau

DERNIER METAR :
  • 130700Z AUTO 30021G32KT 270V330 9999 FEW034/// SCT050/// BKN062/// ///TCU 08/04 Q0991 TEMPO 29030G45KT 2000 SHRA BKN010TCU BKN020

METARs EXPIRÉS :
  • 130630Z AUTO 30023G37KT 9999 BKN036 BKN043 BKN054 08/03 Q0990 TEMPO 2000 SHRA BKN010TCU BKN020
  • 130600Z AUTO 30022KT 9999 SCT034/// BKN040/// ///CB 08/03 Q0990 TEMPO 29030G45KT 2000 SHRA BKN010TCU BKN020
  • 130530Z AUTO 30024G36KT 9999 FEW015 SCT029 BKN060 08/04 Q0989 TEMPO 2000 SHRA BKN010TCU BKN020
  • 130500Z AUTO 30023G35KT 9999 FEW026/// BKN031/// BKN054/// ///CB 07/04 Q0989
  • 130430Z AUTO 30020G31KT 9999 BKN031/// BKN049/// BKN072/// ///TCU 08/05 Q0988

TAF TAF LFRJ
Valide du 13 à 06h jusqu'au 13 à 15h UTC


130500Z 1306/1315 29025G35KT 9999 SCT020 BKN030
TEMPO 1306/1313 29030G45KT 2000 SHRA BKN010TCU BKN020
BECMG 1313/1315 4000 RA OVC010



MET'MAP, la Météo Aéronautique d'un coup d'oeil ! - Copyright ORBIFLY Décembre 2007 - Disclaimer

ORBIFLY MET'MAP TEAM :

Programmation & Développement : Alexandra Zaïnal
Sur une idée originale de : Baudouin d'Aumeries
Assistance à la programmation : Marc-Olivier Méhu
Soutien technique & logistique : Manuel Goepfert

Contact : metmap@orbifly.com




SOURCES & CREDITS :

   NOAA